sensor_id;sensor_type;location;lat;lon;timestamp;P1;durP1;ratioP1;P2;durP2;ratioP2
51660;SDS011;37741;49.748;8.490;2023-12-28T00:00:28;6.35;;;3.78;;
51660;SDS011;37741;49.748;8.490;2023-12-28T00:02:53;5.40;;;3.47;;
51660;SDS011;37741;49.748;8.490;2023-12-28T00:05:19;5.35;;;3.20;;
51660;SDS011;37741;49.748;8.490;2023-12-28T00:07:44;5.55;;;3.65;;
51660;SDS011;37741;49.748;8.490;2023-12-28T00:10:10;5.35;;;3.72;;
51660;SDS011;37741;49.748;8.490;2023-12-28T00:12:36;6.03;;;3.83;;
51660;SDS011;37741;49.748;8.490;2023-12-28T00:15:02;5.53;;;3.65;;
51660;SDS011;37741;49.748;8.490;2023-12-28T00:17:27;6.32;;;3.97;;
51660;SDS011;37741;49.748;8.490;2023-12-28T00:19:53;5.13;;;3.38;;
51660;SDS011;37741;49.748;8.490;2023-12-28T00:22:19;5.30;;;3.50;;
51660;SDS011;37741;49.748;8.490;2023-12-28T00:24:45;5.43;;;3.78;;
51660;SDS011;37741;49.748;8.490;2023-12-28T00:27:10;7.10;;;3.80;;
51660;SDS011;37741;49.748;8.490;2023-12-28T00:29:36;7.57;;;3.50;;
51660;SDS011;37741;49.748;8.490;2023-12-28T00:32:05;6.35;;;3.75;;
51660;SDS011;37741;49.748;8.490;2023-12-28T00:34:30;5.50;;;3.55;;
51660;SDS011;37741;49.748;8.490;2023-12-28T00:36:56;5.82;;;3.92;;
51660;SDS011;37741;49.748;8.490;2023-12-28T00:39:22;6.93;;;3.53;;
51660;SDS011;37741;49.748;8.490;2023-12-28T00:41:47;8.38;;;4.20;;
51660;SDS011;37741;49.748;8.490;2023-12-28T00:44:13;5.07;;;3.60;;
51660;SDS011;37741;49.748;8.490;2023-12-28T00:46:38;6.55;;;4.07;;
51660;SDS011;37741;49.748;8.490;2023-12-28T00:49:04;5.28;;;3.90;;
51660;SDS011;37741;49.748;8.490;2023-12-28T00:51:30;6.47;;;3.80;;
51660;SDS011;37741;49.748;8.490;2023-12-28T00:53:56;6.00;;;3.83;;
51660;SDS011;37741;49.748;8.490;2023-12-28T00:56:21;5.75;;;3.35;;
51660;SDS011;37741;49.748;8.490;2023-12-28T00:58:47;5.88;;;3.50;;
51660;SDS011;37741;49.748;8.490;2023-12-28T01:01:12;8.20;;;4.57;;
51660;SDS011;37741;49.748;8.490;2023-12-28T01:03:38;5.45;;;3.67;;
51660;SDS011;37741;49.748;8.490;2023-12-28T01:06:04;7.63;;;3.90;;
51660;SDS011;37741;49.748;8.490;2023-12-28T01:08:30;6.47;;;3.92;;
51660;SDS011;37741;49.748;8.490;2023-12-28T01:10:58;5.80;;;3.97;;
51660;SDS011;37741;49.748;8.490;2023-12-28T01:13:24;7.50;;;4.07;;
51660;SDS011;37741;49.748;8.490;2023-12-28T01:15:50;5.60;;;3.38;;
51660;SDS011;37741;49.748;8.490;2023-12-28T01:18:15;6.43;;;3.67;;
51660;SDS011;37741;49.748;8.490;2023-12-28T01:20:41;6.47;;;3.67;;
51660;SDS011;37741;49.748;8.490;2023-12-28T01:23:07;5.38;;;3.60;;
51660;SDS011;37741;49.748;8.490;2023-12-28T01:25:33;5.82;;;3.97;;
51660;SDS011;37741;49.748;8.490;2023-12-28T01:27:59;6.90;;;4.30;;
51660;SDS011;37741;49.748;8.490;2023-12-28T01:30:24;6.70;;;4.22;;
51660;SDS011;37741;49.748;8.490;2023-12-28T01:32:51;7.00;;;3.67;;
51660;SDS011;37741;49.748;8.490;2023-12-28T01:35:16;5.03;;;3.20;;
51660;SDS011;37741;49.748;8.490;2023-12-28T01:37:42;7.57;;;4.30;;
51660;SDS011;37741;49.748;8.490;2023-12-28T01:40:08;6.50;;;3.95;;
51660;SDS011;37741;49.748;8.490;2023-12-28T01:42:34;6.38;;;4.00;;
51660;SDS011;37741;49.748;8.490;2023-12-28T01:45:00;5.82;;;4.20;;
51660;SDS011;37741;49.748;8.490;2023-12-28T01:47:26;5.55;;;3.90;;
51660;SDS011;37741;49.748;8.490;2023-12-28T01:49:52;8.90;;;4.03;;
51660;SDS011;37741;49.748;8.490;2023-12-28T01:52:19;5.72;;;3.78;;
51660;SDS011;37741;49.748;8.490;2023-12-28T01:54:45;7.15;;;3.97;;
51660;SDS011;37741;49.748;8.490;2023-12-28T01:57:11;6.85;;;4.47;;
51660;SDS011;37741;49.748;8.490;2023-12-28T01:59:38;5.57;;;3.88;;
51660;SDS011;37741;49.748;8.490;2023-12-28T02:02:05;7.30;;;4.35;;
51660;SDS011;37741;49.748;8.490;2023-12-28T02:04:31;5.97;;;3.47;;
51660;SDS011;37741;49.748;8.490;2023-12-28T02:06:59;6.28;;;4.10;;
51660;SDS011;37741;49.748;8.490;2023-12-28T02:09:25;9.32;;;4.32;;
51660;SDS011;37741;49.748;8.490;2023-12-28T02:11:51;5.80;;;4.03;;
51660;SDS011;37741;49.748;8.490;2023-12-28T02:14:18;6.85;;;3.67;;
51660;SDS011;37741;49.748;8.490;2023-12-28T02:16:44;5.63;;;3.88;;
51660;SDS011;37741;49.748;8.490;2023-12-28T02:21:54;5.57;;;3.75;;
51660;SDS011;37741;49.748;8.490;2023-12-28T02:24:20;5.53;;;3.40;;
51660;SDS011;37741;49.748;8.490;2023-12-28T02:26:46;5.30;;;3.85;;
51660;SDS011;37741;49.748;8.490;2023-12-28T02:29:11;6.97;;;4.40;;
51660;SDS011;37741;49.748;8.490;2023-12-28T02:31:38;6.38;;;3.80;;
51660;SDS011;37741;49.748;8.490;2023-12-28T02:34:16;5.80;;;4.03;;
51660;SDS011;37741;49.748;8.490;2023-12-28T02:36:50;5.88;;;3.80;;
51660;SDS011;37741;49.748;8.490;2023-12-28T02:39:17;6.13;;;3.53;;
51660;SDS011;37741;49.748;8.490;2023-12-28T02:41:44;7.15;;;3.88;;
51660;SDS011;37741;49.748;8.490;2023-12-28T02:44:11;7.68;;;4.25;;
51660;SDS011;37741;49.748;8.490;2023-12-28T02:46:37;6.00;;;4.07;;
51660;SDS011;37741;49.748;8.490;2023-12-28T02:49:03;5.35;;;3.88;;
51660;SDS011;37741;49.748;8.490;2023-12-28T02:51:28;7.35;;;3.83;;
51660;SDS011;37741;49.748;8.490;2023-12-28T02:53:54;4.95;;;3.55;;
51660;SDS011;37741;49.748;8.490;2023-12-28T02:56:20;5.75;;;3.50;;
51660;SDS011;37741;49.748;8.490;2023-12-28T02:58:45;5.82;;;3.65;;
51660;SDS011;37741;49.748;8.490;2023-12-28T03:01:11;7.43;;;3.53;;
51660;SDS011;37741;49.748;8.490;2023-12-28T03:03:36;5.75;;;3.90;;
51660;SDS011;37741;49.748;8.490;2023-12-28T03:06:02;5.70;;;3.08;;
51660;SDS011;37741;49.748;8.490;2023-12-28T03:08:27;5.75;;;3.70;;
51660;SDS011;37741;49.748;8.490;2023-12-28T03:10:53;6.97;;;4.22;;
51660;SDS011;37741;49.748;8.490;2023-12-28T03:13:20;5.68;;;3.80;;
51660;SDS011;37741;49.748;8.490;2023-12-28T03:15:45;5.40;;;3.78;;
51660;SDS011;37741;49.748;8.490;2023-12-28T03:18:11;5.97;;;3.08;;
51660;SDS011;37741;49.748;8.490;2023-12-28T03:20:36;5.25;;;3.47;;
51660;SDS011;37741;49.748;8.490;2023-12-28T03:23:02;5.45;;;3.58;;
51660;SDS011;37741;49.748;8.490;2023-12-28T03:25:28;5.85;;;3.95;;
51660;SDS011;37741;49.748;8.490;2023-12-28T03:27:53;5.38;;;3.20;;
51660;SDS011;37741;49.748;8.490;2023-12-28T03:30:23;5.00;;;3.00;;
51660;SDS011;37741;49.748;8.490;2023-12-28T03:32:48;5.25;;;2.90;;
51660;SDS011;37741;49.748;8.490;2023-12-28T03:35:14;6.00;;;3.55;;
51660;SDS011;37741;49.748;8.490;2023-12-28T03:37:40;4.60;;;3.17;;
51660;SDS011;37741;49.748;8.490;2023-12-28T03:40:06;4.82;;;3.10;;
51660;SDS011;37741;49.748;8.490;2023-12-28T03:42:32;4.50;;;2.65;;
51660;SDS011;37741;49.748;8.490;2023-12-28T03:44:57;4.90;;;2.70;;
51660;SDS011;37741;49.748;8.490;2023-12-28T03:47:23;4.50;;;2.85;;
51660;SDS011;37741;49.748;8.490;2023-12-28T03:49:49;4.60;;;3.17;;
51660;SDS011;37741;49.748;8.490;2023-12-28T03:52:14;5.80;;;3.42;;
51660;SDS011;37741;49.748;8.490;2023-12-28T03:54:40;5.10;;;3.13;;
51660;SDS011;37741;49.748;8.490;2023-12-28T03:57:06;5.82;;;2.95;;
51660;SDS011;37741;49.748;8.490;2023-12-28T03:59:31;4.90;;;3.00;;
51660;SDS011;37741;49.748;8.490;2023-12-28T04:01:57;4.28;;;2.75;;
51660;SDS011;37741;49.748;8.490;2023-12-28T04:04:22;4.47;;;2.90;;
51660;SDS011;37741;49.748;8.490;2023-12-28T04:06:48;5.20;;;3.45;;
51660;SDS011;37741;49.748;8.490;2023-12-28T04:09:14;3.80;;;2.72;;
51660;SDS011;37741;49.748;8.490;2023-12-28T04:11:39;5.30;;;3.08;;
51660;SDS011;37741;49.748;8.490;2023-12-28T04:14:05;4.90;;;2.90;;
51660;SDS011;37741;49.748;8.490;2023-12-28T04:16:31;4.50;;;2.80;;
51660;SDS011;37741;49.748;8.490;2023-12-28T04:18:56;4.40;;;3.00;;
51660;SDS011;37741;49.748;8.490;2023-12-28T04:21:22;3.58;;;2.30;;
51660;SDS011;37741;49.748;8.490;2023-12-28T04:23:48;5.65;;;3.08;;
51660;SDS011;37741;49.748;8.490;2023-12-28T04:26:13;4.10;;;2.53;;
51660;SDS011;37741;49.748;8.490;2023-12-28T04:28:39;3.85;;;2.70;;
51660;SDS011;37741;49.748;8.490;2023-12-28T04:31:05;5.93;;;3.60;;
51660;SDS011;37741;49.748;8.490;2023-12-28T04:33:31;4.35;;;2.63;;
51660;SDS011;37741;49.748;8.490;2023-12-28T04:36:00;4.85;;;2.95;;
51660;SDS011;37741;49.748;8.490;2023-12-28T04:38:28;4.28;;;2.58;;
51660;SDS011;37741;49.748;8.490;2023-12-28T04:40:54;4.43;;;2.50;;
51660;SDS011;37741;49.748;8.490;2023-12-28T04:43:19;4.93;;;2.83;;
51660;SDS011;37741;49.748;8.490;2023-12-28T04:45:45;5.40;;;2.22;;
51660;SDS011;37741;49.748;8.490;2023-12-28T04:48:11;4.03;;;2.42;;
51660;SDS011;37741;49.748;8.490;2023-12-28T04:50:36;6.82;;;2.95;;
51660;SDS011;37741;49.748;8.490;2023-12-28T04:53:02;3.95;;;3.03;;
51660;SDS011;37741;49.748;8.490;2023-12-28T04:55:28;4.93;;;3.03;;
51660;SDS011;37741;49.748;8.490;2023-12-28T04:57:54;3.85;;;2.60;;
51660;SDS011;37741;49.748;8.490;2023-12-28T05:00:19;6.07;;;2.45;;
51660;SDS011;37741;49.748;8.490;2023-12-28T05:02:45;4.05;;;2.42;;
51660;SDS011;37741;49.748;8.490;2023-12-28T05:05:11;4.43;;;2.45;;
51660;SDS011;37741;49.748;8.490;2023-12-28T05:07:37;4.28;;;2.28;;
51660;SDS011;37741;49.748;8.490;2023-12-28T05:10:03;3.55;;;2.30;;
51660;SDS011;37741;49.748;8.490;2023-12-28T05:12:29;3.03;;;2.13;;
51660;SDS011;37741;49.748;8.490;2023-12-28T05:14:55;3.80;;;2.13;;
51660;SDS011;37741;49.748;8.490;2023-12-28T05:17:20;3.88;;;2.30;;
51660;SDS011;37741;49.748;8.490;2023-12-28T05:19:46;3.55;;;2.30;;
51660;SDS011;37741;49.748;8.490;2023-12-28T05:22:12;3.63;;;2.25;;
51660;SDS011;37741;49.748;8.490;2023-12-28T05:24:37;3.78;;;2.28;;
51660;SDS011;37741;49.748;8.490;2023-12-28T05:27:03;5.47;;;2.60;;
51660;SDS011;37741;49.748;8.490;2023-12-28T05:29:29;3.90;;;2.53;;
51660;SDS011;37741;49.748;8.490;2023-12-28T05:31:54;3.70;;;2.35;;
51660;SDS011;37741;49.748;8.490;2023-12-28T05:34:20;3.70;;;2.10;;
51660;SDS011;37741;49.748;8.490;2023-12-28T05:36:45;4.22;;;2.20;;
51660;SDS011;37741;49.748;8.490;2023-12-28T05:39:11;3.65;;;2.30;;
51660;SDS011;37741;49.748;8.490;2023-12-28T05:41:40;4.15;;;2.10;;
51660;SDS011;37741;49.748;8.490;2023-12-28T05:44:05;4.68;;;2.83;;
51660;SDS011;37741;49.748;8.490;2023-12-28T05:46:31;4.20;;;2.20;;
51660;SDS011;37741;49.748;8.490;2023-12-28T05:48:57;3.47;;;2.10;;
51660;SDS011;37741;49.748;8.490;2023-12-28T05:51:23;3.58;;;2.15;;
51660;SDS011;37741;49.748;8.490;2023-12-28T05:53:48;3.83;;;2.20;;
51660;SDS011;37741;49.748;8.490;2023-12-28T05:56:14;3.42;;;2.10;;
51660;SDS011;37741;49.748;8.490;2023-12-28T05:58:39;2.88;;;1.85;;
51660;SDS011;37741;49.748;8.490;2023-12-28T06:01:06;4.85;;;3.03;;
51660;SDS011;37741;49.748;8.490;2023-12-28T06:03:32;5.63;;;3.17;;
51660;SDS011;37741;49.748;8.490;2023-12-28T06:05:57;4.30;;;2.22;;
51660;SDS011;37741;49.748;8.490;2023-12-28T06:08:23;3.45;;;2.38;;
51660;SDS011;37741;49.748;8.490;2023-12-28T06:10:49;3.10;;;2.03;;
51660;SDS011;37741;49.748;8.490;2023-12-28T06:13:14;4.03;;;2.63;;
51660;SDS011;37741;49.748;8.490;2023-12-28T06:15:40;3.83;;;2.10;;
51660;SDS011;37741;49.748;8.490;2023-12-28T06:18:06;3.97;;;2.40;;
51660;SDS011;37741;49.748;8.490;2023-12-28T06:20:31;3.30;;;2.35;;
51660;SDS011;37741;49.748;8.490;2023-12-28T06:22:57;3.63;;;2.22;;
51660;SDS011;37741;49.748;8.490;2023-12-28T06:25:23;3.67;;;2.28;;
51660;SDS011;37741;49.748;8.490;2023-12-28T06:27:48;4.15;;;2.42;;
51660;SDS011;37741;49.748;8.490;2023-12-28T06:30:14;4.88;;;2.80;;
51660;SDS011;37741;49.748;8.490;2023-12-28T06:32:40;4.13;;;2.50;;
51660;SDS011;37741;49.748;8.490;2023-12-28T06:35:06;4.20;;;2.60;;
51660;SDS011;37741;49.748;8.490;2023-12-28T06:37:31;4.47;;;2.38;;
51660;SDS011;37741;49.748;8.490;2023-12-28T06:39:57;4.57;;;2.45;;
51660;SDS011;37741;49.748;8.490;2023-12-28T06:42:23;3.50;;;2.40;;
51660;SDS011;37741;49.748;8.490;2023-12-28T06:44:48;3.67;;;2.10;;
51660;SDS011;37741;49.748;8.490;2023-12-28T06:47:14;4.20;;;2.42;;
51660;SDS011;37741;49.748;8.490;2023-12-28T06:49:39;3.85;;;2.28;;
51660;SDS011;37741;49.748;8.490;2023-12-28T06:52:05;3.97;;;2.22;;
51660;SDS011;37741;49.748;8.490;2023-12-28T06:54:31;3.97;;;2.58;;
51660;SDS011;37741;49.748;8.490;2023-12-28T06:56:56;3.30;;;2.13;;
51660;SDS011;37741;49.748;8.490;2023-12-28T06:59:22;3.17;;;2.00;;
51660;SDS011;37741;49.748;8.490;2023-12-28T07:01:47;4.95;;;2.05;;
51660;SDS011;37741;49.748;8.490;2023-12-28T07:04:14;3.72;;;2.15;;
51660;SDS011;37741;49.748;8.490;2023-12-28T07:06:40;5.63;;;2.88;;
51660;SDS011;37741;49.748;8.490;2023-12-28T07:09:06;3.72;;;2.45;;
51660;SDS011;37741;49.748;8.490;2023-12-28T07:11:32;3.70;;;2.33;;
51660;SDS011;37741;49.748;8.490;2023-12-28T07:13:57;3.45;;;1.88;;
51660;SDS011;37741;49.748;8.490;2023-12-28T07:16:23;5.03;;;2.00;;
51660;SDS011;37741;49.748;8.490;2023-12-28T07:18:49;4.40;;;2.22;;
51660;SDS011;37741;49.748;8.490;2023-12-28T07:21:14;3.25;;;2.03;;
51660;SDS011;37741;49.748;8.490;2023-12-28T07:23:40;4.07;;;2.33;;
51660;SDS011;37741;49.748;8.490;2023-12-28T07:26:06;3.95;;;2.72;;
51660;SDS011;37741;49.748;8.490;2023-12-28T07:28:32;5.82;;;2.50;;
51660;SDS011;37741;49.748;8.490;2023-12-28T07:30:57;4.57;;;2.65;;
51660;SDS011;37741;49.748;8.490;2023-12-28T07:33:23;4.78;;;2.30;;
51660;SDS011;37741;49.748;8.490;2023-12-28T07:35:49;6.15;;;2.92;;
51660;SDS011;37741;49.748;8.490;2023-12-28T07:38:14;5.00;;;2.75;;
51660;SDS011;37741;49.748;8.490;2023-12-28T07:40:41;3.90;;;2.45;;
51660;SDS011;37741;49.748;8.490;2023-12-28T07:43:06;3.47;;;2.40;;
51660;SDS011;37741;49.748;8.490;2023-12-28T07:45:32;3.88;;;2.42;;
51660;SDS011;37741;49.748;8.490;2023-12-28T07:48:01;3.50;;;2.25;;
51660;SDS011;37741;49.748;8.490;2023-12-28T07:50:26;3.53;;;2.38;;
51660;SDS011;37741;49.748;8.490;2023-12-28T07:52:52;4.65;;;2.60;;
51660;SDS011;37741;49.748;8.490;2023-12-28T07:55:18;5.65;;;2.97;;
51660;SDS011;37741;49.748;8.490;2023-12-28T07:57:44;3.90;;;2.50;;
51660;SDS011;37741;49.748;8.490;2023-12-28T08:00:11;4.88;;;2.88;;
51660;SDS011;37741;49.748;8.490;2023-12-28T08:02:38;3.97;;;2.92;;
51660;SDS011;37741;49.748;8.490;2023-12-28T08:05:04;5.07;;;2.58;;
51660;SDS011;37741;49.748;8.490;2023-12-28T08:07:30;3.47;;;1.85;;
51660;SDS011;37741;49.748;8.490;2023-12-28T08:09:56;2.92;;;2.38;;
51660;SDS011;37741;49.748;8.490;2023-12-28T08:12:21;5.55;;;2.75;;
51660;SDS011;37741;49.748;8.490;2023-12-28T08:14:49;4.03;;;2.15;;
51660;SDS011;37741;49.748;8.490;2023-12-28T08:17:15;4.38;;;1.98;;
51660;SDS011;37741;49.748;8.490;2023-12-28T08:19:40;4.40;;;2.50;;
51660;SDS011;37741;49.748;8.490;2023-12-28T08:22:06;3.22;;;1.98;;
51660;SDS011;37741;49.748;8.490;2023-12-28T08:24:32;4.05;;;2.17;;
51660;SDS011;37741;49.748;8.490;2023-12-28T08:26:58;3.30;;;2.13;;
51660;SDS011;37741;49.748;8.490;2023-12-28T08:29:25;3.10;;;1.85;;
51660;SDS011;37741;49.748;8.490;2023-12-28T08:31:51;3.17;;;2.08;;
51660;SDS011;37741;49.748;8.490;2023-12-28T08:34:17;3.90;;;1.92;;
51660;SDS011;37741;49.748;8.490;2023-12-28T08:36:42;3.88;;;2.30;;
51660;SDS011;37741;49.748;8.490;2023-12-28T08:39:08;4.10;;;2.40;;
51660;SDS011;37741;49.748;8.490;2023-12-28T08:41:33;4.47;;;2.53;;
51660;SDS011;37741;49.748;8.490;2023-12-28T08:43:59;3.25;;;2.00;;
51660;SDS011;37741;49.748;8.490;2023-12-28T08:46:25;4.72;;;2.22;;
51660;SDS011;37741;49.748;8.490;2023-12-28T08:48:50;3.40;;;2.13;;
51660;SDS011;37741;49.748;8.490;2023-12-28T08:51:16;4.78;;;2.08;;
51660;SDS011;37741;49.748;8.490;2023-12-28T08:53:42;5.15;;;2.25;;
51660;SDS011;37741;49.748;8.490;2023-12-28T08:56:18;3.50;;;1.88;;
51660;SDS011;37741;49.748;8.490;2023-12-28T08:58:45;3.28;;;2.22;;
51660;SDS011;37741;49.748;8.490;2023-12-28T09:01:17;4.45;;;2.90;;
51660;SDS011;37741;49.748;8.490;2023-12-28T09:03:50;4.03;;;1.90;;
51660;SDS011;37741;49.748;8.490;2023-12-28T09:06:17;3.50;;;2.38;;
51660;SDS011;37741;49.748;8.490;2023-12-28T09:08:44;4.45;;;2.13;;
51660;SDS011;37741;49.748;8.490;2023-12-28T09:11:12;3.58;;;2.08;;
51660;SDS011;37741;49.748;8.490;2023-12-28T09:13:38;6.13;;;2.45;;
51660;SDS011;37741;49.748;8.490;2023-12-28T09:16:09;5.50;;;2.08;;
51660;SDS011;37741;49.748;8.490;2023-12-28T09:18:36;3.40;;;1.90;;
51660;SDS011;37741;49.748;8.490;2023-12-28T09:21:02;3.03;;;1.80;;
51660;SDS011;37741;49.748;8.490;2023-12-28T09:23:28;2.90;;;1.98;;
51660;SDS011;37741;49.748;8.490;2023-12-28T09:25:54;4.28;;;2.13;;
51660;SDS011;37741;49.748;8.490;2023-12-28T09:28:20;3.45;;;1.80;;
51660;SDS011;37741;49.748;8.490;2023-12-28T09:30:45;3.40;;;1.80;;
51660;SDS011;37741;49.748;8.490;2023-12-28T09:33:11;3.40;;;1.70;;
51660;SDS011;37741;49.748;8.490;2023-12-28T09:35:37;4.03;;;2.17;;
51660;SDS011;37741;49.748;8.490;2023-12-28T09:38:02;3.28;;;1.90;;
51660;SDS011;37741;49.748;8.490;2023-12-28T09:40:28;3.80;;;1.90;;
51660;SDS011;37741;49.748;8.490;2023-12-28T09:43:01;4.63;;;2.10;;
51660;SDS011;37741;49.748;8.490;2023-12-28T09:45:34;4.38;;;2.17;;
51660;SDS011;37741;49.748;8.490;2023-12-28T09:48:00;3.80;;;2.40;;
51660;SDS011;37741;49.748;8.490;2023-12-28T09:50:28;4.78;;;1.88;;
51660;SDS011;37741;49.748;8.490;2023-12-28T09:52:55;3.63;;;1.83;;
51660;SDS011;37741;49.748;8.490;2023-12-28T09:55:21;3.08;;;1.73;;
51660;SDS011;37741;49.748;8.490;2023-12-28T09:57:47;4.18;;;1.83;;
51660;SDS011;37741;49.748;8.490;2023-12-28T10:00:14;5.60;;;2.38;;
51660;SDS011;37741;49.748;8.490;2023-12-28T10:02:40;3.20;;;1.98;;
51660;SDS011;37741;49.748;8.490;2023-12-28T10:05:08;4.57;;;2.58;;
51660;SDS011;37741;49.748;8.490;2023-12-28T10:07:44;3.92;;;2.33;;
51660;SDS011;37741;49.748;8.490;2023-12-28T10:10:10;3.65;;;2.15;;
51660;SDS011;37741;49.748;8.490;2023-12-28T10:12:36;4.20;;;2.08;;
51660;SDS011;37741;49.748;8.490;2023-12-28T10:15:03;3.47;;;2.40;;
51660;SDS011;37741;49.748;8.490;2023-12-28T10:17:32;3.10;;;2.05;;
51660;SDS011;37741;49.748;8.490;2023-12-28T10:19:59;3.67;;;1.92;;
51660;SDS011;37741;49.748;8.490;2023-12-28T10:22:28;3.83;;;2.30;;
51660;SDS011;37741;49.748;8.490;2023-12-28T10:24:54;3.78;;;2.28;;
51660;SDS011;37741;49.748;8.490;2023-12-28T10:27:20;4.28;;;2.20;;
51660;SDS011;37741;49.748;8.490;2023-12-28T10:29:46;5.10;;;1.98;;
51660;SDS011;37741;49.748;8.490;2023-12-28T10:32:11;3.47;;;1.85;;
51660;SDS011;37741;49.748;8.490;2023-12-28T10:34:38;5.57;;;2.42;;
51660;SDS011;37741;49.748;8.490;2023-12-28T10:37:04;3.45;;;2.25;;
51660;SDS011;37741;49.748;8.490;2023-12-28T10:39:31;3.42;;;2.10;;
51660;SDS011;37741;49.748;8.490;2023-12-28T10:41:59;3.88;;;1.95;;
51660;SDS011;37741;49.748;8.490;2023-12-28T10:44:31;3.97;;;2.33;;
51660;SDS011;37741;49.748;8.490;2023-12-28T10:47:01;3.22;;;1.90;;
51660;SDS011;37741;49.748;8.490;2023-12-28T10:49:30;3.40;;;1.70;;
51660;SDS011;37741;49.748;8.490;2023-12-28T10:51:58;3.85;;;1.70;;
51660;SDS011;37741;49.748;8.490;2023-12-28T10:57:12;2.90;;;2.05;;
51660;SDS011;37741;49.748;8.490;2023-12-28T11:00:00;5.85;;;2.08;;
51660;SDS011;37741;49.748;8.490;2023-12-28T11:02:57;3.17;;;2.25;;
51660;SDS011;37741;49.748;8.490;2023-12-28T11:05:22;4.10;;;2.10;;
51660;SDS011;37741;49.748;8.490;2023-12-28T11:07:49;4.03;;;2.20;;
51660;SDS011;37741;49.748;8.490;2023-12-28T11:10:19;3.88;;;2.38;;
51660;SDS011;37741;49.748;8.490;2023-12-28T11:12:48;2.70;;;1.90;;
51660;SDS011;37741;49.748;8.490;2023-12-28T11:15:16;3.75;;;2.22;;
51660;SDS011;37741;49.748;8.490;2023-12-28T11:17:43;3.45;;;2.17;;
51660;SDS011;37741;49.748;8.490;2023-12-28T11:20:08;4.72;;;2.17;;
51660;SDS011;37741;49.748;8.490;2023-12-28T11:22:35;4.63;;;2.35;;
51660;SDS011;37741;49.748;8.490;2023-12-28T11:25:02;4.47;;;1.98;;
51660;SDS011;37741;49.748;8.490;2023-12-28T11:27:35;3.63;;;2.30;;
51660;SDS011;37741;49.748;8.490;2023-12-28T11:30:06;3.45;;;1.90;;
51660;SDS011;37741;49.748;8.490;2023-12-28T11:32:32;6.97;;;2.30;;
51660;SDS011;37741;49.748;8.490;2023-12-28T11:34:59;3.45;;;2.13;;
51660;SDS011;37741;49.748;8.490;2023-12-28T11:37:26;5.05;;;2.55;;
51660;SDS011;37741;49.748;8.490;2023-12-28T11:39:52;4.35;;;2.17;;
51660;SDS011;37741;49.748;8.490;2023-12-28T11:42:20;4.70;;;2.42;;
51660;SDS011;37741;49.748;8.490;2023-12-28T11:44:47;3.30;;;2.10;;
51660;SDS011;37741;49.748;8.490;2023-12-28T11:47:21;4.75;;;2.25;;
51660;SDS011;37741;49.748;8.490;2023-12-28T11:49:52;3.95;;;2.50;;
51660;SDS011;37741;49.748;8.490;2023-12-28T11:52:37;4.28;;;2.60;;
51660;SDS011;37741;49.748;8.490;2023-12-28T11:55:03;4.18;;;2.28;;
51660;SDS011;37741;49.748;8.490;2023-12-28T11:57:30;4.30;;;2.33;;
51660;SDS011;37741;49.748;8.490;2023-12-28T12:00:00;3.92;;;2.20;;
51660;SDS011;37741;49.748;8.490;2023-12-28T12:02:27;3.47;;;2.10;;
51660;SDS011;37741;49.748;8.490;2023-12-28T12:04:53;4.63;;;2.45;;
51660;SDS011;37741;49.748;8.490;2023-12-28T12:07:19;4.70;;;2.58;;
51660;SDS011;37741;49.748;8.490;2023-12-28T12:09:45;4.40;;;2.30;;
51660;SDS011;37741;49.748;8.490;2023-12-28T12:12:11;4.03;;;2.30;;
51660;SDS011;37741;49.748;8.490;2023-12-28T12:14:36;5.10;;;2.13;;
51660;SDS011;37741;49.748;8.490;2023-12-28T12:17:03;4.80;;;2.38;;
51660;SDS011;37741;49.748;8.490;2023-12-28T12:19:28;4.80;;;2.28;;
51660;SDS011;37741;49.748;8.490;2023-12-28T12:21:56;4.28;;;2.30;;
51660;SDS011;37741;49.748;8.490;2023-12-28T12:24:22;5.30;;;2.40;;
51660;SDS011;37741;49.748;8.490;2023-12-28T12:26:51;3.55;;;2.30;;
51660;SDS011;37741;49.748;8.490;2023-12-28T12:29:18;3.80;;;2.17;;
51660;SDS011;37741;49.748;8.490;2023-12-28T12:31:44;4.75;;;2.45;;
51660;SDS011;37741;49.748;8.490;2023-12-28T12:34:14;4.55;;;2.60;;
51660;SDS011;37741;49.748;8.490;2023-12-28T12:36:41;4.30;;;2.10;;
51660;SDS011;37741;49.748;8.490;2023-12-28T12:39:07;4.38;;;2.60;;
51660;SDS011;37741;49.748;8.490;2023-12-28T12:41:36;8.40;;;2.67;;
51660;SDS011;37741;49.748;8.490;2023-12-28T12:44:02;3.90;;;2.40;;
51660;SDS011;37741;49.748;8.490;2023-12-28T12:46:29;4.63;;;2.22;;
51660;SDS011;37741;49.748;8.490;2023-12-28T12:48:59;5.68;;;2.95;;
51660;SDS011;37741;49.748;8.490;2023-12-28T12:51:27;5.30;;;2.03;;
51660;SDS011;37741;49.748;8.490;2023-12-28T12:54:00;3.97;;;2.83;;
51660;SDS011;37741;49.748;8.490;2023-12-28T12:56:28;3.63;;;2.00;;
51660;SDS011;37741;49.748;8.490;2023-12-28T12:58:55;3.72;;;2.40;;
51660;SDS011;37741;49.748;8.490;2023-12-28T13:01:21;5.05;;;2.42;;
51660;SDS011;37741;49.748;8.490;2023-12-28T13:03:48;3.90;;;2.38;;
51660;SDS011;37741;49.748;8.490;2023-12-28T13:06:14;6.30;;;3.10;;
51660;SDS011;37741;49.748;8.490;2023-12-28T13:08:40;5.00;;;2.20;;
51660;SDS011;37741;49.748;8.490;2023-12-28T13:11:05;5.80;;;2.83;;
51660;SDS011;37741;49.748;8.490;2023-12-28T13:13:34;5.18;;;2.88;;
51660;SDS011;37741;49.748;8.490;2023-12-28T13:16:01;5.57;;;2.67;;
51660;SDS011;37741;49.748;8.490;2023-12-28T13:18:27;4.82;;;2.75;;
51660;SDS011;37741;49.748;8.490;2023-12-28T13:20:52;3.55;;;2.30;;
51660;SDS011;37741;49.748;8.490;2023-12-28T13:23:18;7.00;;;2.58;;
51660;SDS011;37741;49.748;8.490;2023-12-28T13:25:46;4.53;;;2.65;;
51660;SDS011;37741;49.748;8.490;2023-12-28T13:28:12;4.93;;;2.42;;
51660;SDS011;37741;49.748;8.490;2023-12-28T13:30:38;4.78;;;3.15;;
51660;SDS011;37741;49.748;8.490;2023-12-28T13:33:04;3.90;;;2.17;;
51660;SDS011;37741;49.748;8.490;2023-12-28T13:35:30;6.50;;;3.25;;
51660;SDS011;37741;49.748;8.490;2023-12-28T13:37:58;5.22;;;2.50;;
51660;SDS011;37741;49.748;8.490;2023-12-28T13:40:24;4.38;;;2.60;;
51660;SDS011;37741;49.748;8.490;2023-12-28T13:42:50;3.78;;;2.35;;
51660;SDS011;37741;49.748;8.490;2023-12-28T13:45:15;4.80;;;2.35;;
51660;SDS011;37741;49.748;8.490;2023-12-28T13:47:41;4.97;;;3.08;;
51660;SDS011;37741;49.748;8.490;2023-12-28T13:50:07;7.32;;;2.70;;
51660;SDS011;37741;49.748;8.490;2023-12-28T13:52:33;4.03;;;2.67;;
51660;SDS011;37741;49.748;8.490;2023-12-28T13:54:59;5.13;;;3.05;;
51660;SDS011;37741;49.748;8.490;2023-12-28T13:57:24;4.80;;;3.55;;
51660;SDS011;37741;49.748;8.490;2023-12-28T13:59:50;4.30;;;3.13;;
51660;SDS011;37741;49.748;8.490;2023-12-28T14:02:26;4.43;;;2.90;;
51660;SDS011;37741;49.748;8.490;2023-12-28T14:05:01;6.43;;;3.60;;
51660;SDS011;37741;49.748;8.490;2023-12-28T14:07:26;6.63;;;3.50;;
51660;SDS011;37741;49.748;8.490;2023-12-28T14:09:52;5.53;;;3.50;;
51660;SDS011;37741;49.748;8.490;2023-12-28T14:12:17;5.65;;;3.90;;
51660;SDS011;37741;49.748;8.490;2023-12-28T14:14:43;4.20;;;3.03;;
51660;SDS011;37741;49.748;8.490;2023-12-28T14:17:09;5.55;;;3.25;;
51660;SDS011;37741;49.748;8.490;2023-12-28T14:19:34;4.68;;;3.53;;
51660;SDS011;37741;49.748;8.490;2023-12-28T14:22:00;5.20;;;3.10;;
51660;SDS011;37741;49.748;8.490;2023-12-28T14:24:26;4.82;;;2.83;;
51660;SDS011;37741;49.748;8.490;2023-12-28T14:26:56;5.68;;;3.28;;
51660;SDS011;37741;49.748;8.490;2023-12-28T14:29:22;4.07;;;3.08;;
51660;SDS011;37741;49.748;8.490;2023-12-28T14:31:48;3.70;;;2.60;;
51660;SDS011;37741;49.748;8.490;2023-12-28T14:34:14;5.07;;;3.00;;
51660;SDS011;37741;49.748;8.490;2023-12-28T14:36:40;4.30;;;3.10;;
51660;SDS011;37741;49.748;8.490;2023-12-28T14:39:11;5.22;;;2.83;;
51660;SDS011;37741;49.748;8.490;2023-12-28T14:41:37;4.38;;;2.30;;
51660;SDS011;37741;49.748;8.490;2023-12-28T14:44:03;4.13;;;2.78;;
51660;SDS011;37741;49.748;8.490;2023-12-28T14:46:29;4.10;;;2.88;;
51660;SDS011;37741;49.748;8.490;2023-12-28T14:48:55;4.13;;;2.70;;